createdAt,value
2018-11-07T00:01:59.099Z,80.58
2018-11-07T00:04:27.883Z,79.99
2018-11-07T00:06:56.639Z,80.03
2018-11-07T00:09:25.603Z,79.31
2018-11-07T00:11:54.273Z,81.21
2018-11-07T00:14:23.164Z,80.76
2018-11-07T00:16:52.023Z,80.72
2018-11-07T00:19:20.788Z,80.49
2018-11-07T00:21:49.699Z,80.16
2018-11-07T00:24:18.830Z,79.15
2018-11-07T00:26:47.842Z,79.13
2018-11-07T00:29:16.855Z,79.61
2018-11-07T00:31:45.697Z,79.74
2018-11-07T00:34:14.527Z,79.96
2018-11-07T00:36:43.119Z,80.32
2018-11-07T00:39:11.854Z,80.26
2018-11-07T00:41:40.866Z,80.05
2018-11-07T00:44:09.743Z,80.01
2018-11-07T00:46:38.693Z,80.42
2018-11-07T00:49:07.675Z,81.23
2018-11-07T00:51:36.778Z,81.33
2018-11-07T00:54:05.781Z,81.03
2018-11-07T00:56:34.609Z,80.84
2018-11-07T00:59:03.649Z,81.20
2018-11-07T01:01:32.863Z,80.55
2018-11-07T01:04:01.912Z,80.13
2018-11-07T01:06:30.599Z,80.05
2018-11-07T01:08:59.647Z,79.41
2018-11-07T01:11:28.642Z,79.58
2018-11-07T01:13:58.274Z,79.31
2018-11-07T01:16:27.050Z,79.13
2018-11-07T01:18:55.875Z,79.09
2018-11-07T01:21:25.083Z,79.21
2018-11-07T01:23:53.966Z,79.42
2018-11-07T01:26:22.703Z,79.74
2018-11-07T01:28:51.787Z,79.84
2018-11-07T01:31:20.375Z,79.47
2018-11-07T01:33:49.020Z,79.10
2018-11-07T01:36:17.945Z,78.90
2018-11-07T01:38:47.053Z,79.18
2018-11-07T01:41:16.104Z,78.55
2018-11-07T01:43:45.208Z,78.79
2018-11-07T01:46:14.287Z,78.11
2018-11-07T01:48:43.131Z,79.36
2018-11-07T01:51:12.403Z,79.12
2018-11-07T01:53:41.376Z,79.68
2018-11-07T01:56:10.170Z,79.49
2018-11-07T01:58:39.278Z,79.95
2018-11-07T02:01:08.292Z,79.23
2018-11-07T02:03:36.954Z,79.46
2018-11-07T02:06:06.061Z,79.34
2018-11-07T02:08:34.935Z,79.71
2018-11-07T02:11:03.827Z,79.60
2018-11-07T02:13:33.117Z,79.76
2018-11-07T02:16:01.960Z,79.40
2018-11-07T02:18:30.910Z,79.28
2018-11-07T02:20:59.909Z,80.19
2018-11-07T02:23:28.770Z,79.63
2018-11-07T02:25:57.674Z,80.43
2018-11-07T02:28:26.694Z,80.36
2018-11-07T02:30:55.666Z,80.54
2018-11-07T02:33:24.338Z,79.85
2018-11-07T02:35:53.427Z,79.40
2018-11-07T02:38:22.755Z,79.54
2018-11-07T02:40:51.603Z,80.03
2018-11-07T02:43:20.747Z,80.40
2018-11-07T02:45:49.614Z,80.19
2018-11-07T02:48:18.530Z,79.55
2018-11-07T02:50:47.978Z,80.18
2018-11-07T02:53:16.961Z,80.64
2018-11-07T02:55:46.128Z,80.67
2018-11-07T02:58:15.237Z,81.14
2018-11-07T03:00:43.826Z,81.25
2018-11-07T03:03:12.470Z,81.20
2018-11-07T03:05:41.357Z,81.61
2018-11-07T03:08:10.265Z,82.01
2018-11-07T03:10:39.357Z,81.92
2018-11-07T03:13:08.094Z,81.76
2018-11-07T03:15:37.025Z,82.64
2018-11-07T03:18:06.318Z,82.70
2018-11-07T03:20:35.221Z,82.88
2018-11-07T03:23:03.978Z,82.48
2018-11-07T03:25:32.671Z,82.63
2018-11-07T03:28:01.556Z,82.17
2018-11-07T03:30:30.502Z,82.56
2018-11-07T03:32:59.219Z,81.45
2018-11-07T03:35:28.726Z,80.97
2018-11-07T03:37:57.996Z,80.38
2018-11-07T03:40:27.404Z,81.56
2018-11-07T03:42:56.710Z,81.99
2018-11-07T03:45:30.730Z,82.25
2018-11-07T03:48:00.184Z,81.92
2018-11-07T03:50:29.255Z,82.51
2018-11-07T03:52:58.025Z,83.16
2018-11-07T03:55:26.677Z,83.29
2018-11-07T03:57:55.673Z,83.70
2018-11-07T04:00:24.358Z,83.60
2018-11-07T04:02:53.390Z,83.89
2018-11-07T04:05:22.090Z,84.21
2018-11-07T04:07:51.035Z,84.40
2018-11-07T04:10:20.165Z,84.24
2018-11-07T04:12:48.887Z,84.74
2018-11-07T04:15:17.726Z,85.01
2018-11-07T04:17:47.117Z,85.20
2018-11-07T04:20:16.123Z,84.91
2018-11-07T04:22:45.050Z,85.07
2018-11-07T04:25:14.086Z,85.04
2018-11-07T04:27:42.886Z,85.19
2018-11-07T04:30:13.222Z,84.90
2018-11-07T04:32:42.443Z,85.05
2018-11-07T04:35:12.309Z,84.41
2018-11-07T04:37:41.674Z,84.29
2018-11-07T04:40:12.051Z,84.37
2018-11-07T04:42:41.062Z,84.59
2018-11-07T04:45:10.073Z,85.08
2018-11-07T04:47:39.169Z,85.33
2018-11-07T04:50:09.586Z,84.95
2018-11-07T04:52:38.779Z,85.17
2018-11-07T04:55:07.574Z,85.03
2018-11-07T04:57:36.658Z,85.16
2018-11-07T05:00:07.985Z,84.85
2018-11-07T05:02:36.896Z,85.16
2018-11-07T05:05:05.998Z,84.84
2018-11-07T05:07:35.022Z,84.59
2018-11-07T05:10:04.266Z,84.35
2018-11-07T05:12:33.230Z,84.15
2018-11-07T05:15:02.432Z,84.03
2018-11-07T05:17:31.691Z,83.37
2018-11-07T05:20:00.682Z,82.47
2018-11-07T05:22:29.506Z,82.94
2018-11-07T05:24:58.252Z,83.14
2018-11-07T05:27:26.986Z,82.12
2018-11-07T05:29:55.945Z,81.79
2018-11-07T05:32:24.994Z,81.26
2018-11-07T05:34:53.912Z,80.67
2018-11-07T05:37:22.742Z,80.45
2018-11-07T05:39:51.943Z,80.17
2018-11-07T05:42:20.745Z,81.11
2018-11-07T05:44:49.615Z,80.88
2018-11-07T05:47:18.557Z,80.02
2018-11-07T05:49:47.451Z,80.67
2018-11-07T05:52:16.521Z,80.32
2018-11-07T05:54:45.645Z,79.96
2018-11-07T05:57:14.460Z,79.89
2018-11-07T05:59:43.430Z,79.25
2018-11-07T06:02:12.191Z,78.67
2018-11-07T06:04:41.011Z,78.77
2018-11-07T06:07:09.626Z,78.56
2018-11-07T06:09:38.582Z,78.04
2018-11-07T06:12:07.506Z,78.47
2018-11-07T06:14:36.252Z,78.12
2018-11-07T06:17:05.358Z,77.85
2018-11-07T06:19:34.486Z,77.74
2018-11-07T06:22:03.270Z,77.19
2018-11-07T06:24:32.936Z,77.03
2018-11-07T06:27:02.185Z,76.13
2018-11-07T06:29:31.111Z,75.44
2018-11-07T06:31:59.989Z,75.54
2018-11-07T06:34:28.833Z,75.11
2018-11-07T06:36:57.935Z,74.72
2018-11-07T06:39:27.169Z,74.70
2018-11-07T06:41:56.814Z,74.53
2018-11-07T06:44:25.830Z,73.85
2018-11-07T06:46:55.034Z,73.36
2018-11-07T06:49:24.174Z,72.95
2018-11-07T06:51:53.669Z,72.19
2018-11-07T06:54:22.540Z,71.83
2018-11-07T06:56:51.666Z,71.67
2018-11-07T06:59:20.487Z,71.21
2018-11-07T07:01:49.567Z,71.14
2018-11-07T07:04:18.514Z,69.83
2018-11-07T07:06:47.366Z,69.86
2018-11-07T07:09:16.313Z,69.74
2018-11-07T07:11:45.249Z,69.43
2018-11-07T07:14:14.013Z,68.84
2018-11-07T07:16:42.698Z,69.43
2018-11-07T07:19:12.160Z,67.96
2018-11-07T07:21:41.186Z,67.98
2018-11-07T07:24:09.889Z,67.86
2018-11-07T07:26:38.858Z,67.14
2018-11-07T07:29:07.989Z,66.53
2018-11-07T07:31:36.743Z,65.59
2018-11-07T07:34:05.837Z,66.08
2018-11-07T07:36:34.840Z,66.33
2018-11-07T07:39:04.008Z,66.13
2018-11-07T07:41:32.798Z,66.02
2018-11-07T07:44:01.712Z,65.35
2018-11-07T07:46:30.806Z,64.78
2018-11-07T07:48:59.815Z,64.98
2018-11-07T07:51:28.774Z,63.91
2018-11-07T07:53:57.679Z,63.08
2018-11-07T07:56:26.523Z,62.64
2018-11-07T07:58:55.378Z,62.59
2018-11-07T08:01:24.035Z,62.48
2018-11-07T08:03:52.760Z,60.94
2018-11-07T08:06:21.726Z,60.46
2018-11-07T08:08:50.517Z,60.91
2018-11-07T08:11:19.666Z,60.57
2018-11-07T08:13:48.355Z,59.83
2018-11-07T08:16:17.381Z,59.43
2018-11-07T08:18:46.083Z,58.16
2018-11-07T08:21:15.265Z,58.25
2018-11-07T08:23:44.131Z,58.43
2018-11-07T08:26:12.858Z,57.28
2018-11-07T08:28:41.811Z,57.32
2018-11-07T08:31:10.453Z,56.81
2018-11-07T08:33:39.158Z,56.19
2018-11-07T08:36:08.147Z,55.54
2018-11-07T08:38:37.066Z,55.57
2018-11-07T08:41:06.845Z,53.89
2018-11-07T08:43:36.387Z,54.16
2018-11-07T08:46:05.926Z,53.48
2018-11-07T08:48:34.822Z,53.59
2018-11-07T08:51:03.611Z,51.63
2018-11-07T08:53:32.625Z,51.14
2018-11-07T08:56:01.822Z,50.44
2018-11-07T08:58:30.738Z,48.65
2018-11-07T09:00:59.403Z,48.65
2018-11-07T09:03:28.130Z,46.39
2018-11-07T09:05:57.405Z,44.88
2018-11-07T09:08:26.280Z,43.97
2018-11-07T09:10:55.142Z,42.29
2018-11-07T09:13:24.512Z,41.80
2018-11-07T09:15:53.529Z,41.97
2018-11-07T09:18:22.673Z,40.94
2018-11-07T09:20:51.872Z,39.60
2018-11-07T09:23:20.905Z,38.98
2018-11-07T09:25:49.689Z,40.98
2018-11-07T09:28:18.481Z,42.84
2018-11-07T09:30:47.607Z,43.17
2018-11-07T09:33:17.195Z,41.67
2018-11-07T09:35:46.355Z,41.02
2018-11-07T09:38:15.232Z,39.81
2018-11-07T09:40:44.126Z,38.15
2018-11-07T09:43:13.332Z,38.10
2018-11-07T09:45:42.150Z,37.55
2018-11-07T09:48:11.432Z,38.22
2018-11-07T09:50:40.612Z,36.77
2018-11-07T09:53:09.347Z,38.03
2018-11-07T09:55:38.229Z,38.03
2018-11-07T09:58:07.511Z,39.05
2018-11-07T10:00:36.202Z,37.06
2018-11-07T10:03:04.967Z,35.67
2018-11-07T10:05:33.881Z,36.35
2018-11-07T10:08:02.688Z,37.56
2018-11-07T10:10:31.334Z,39.22
2018-11-07T10:13:00.560Z,39.13
2018-11-07T10:15:29.728Z,41.90
2018-11-07T10:17:58.805Z,41.85
2018-11-07T10:20:27.940Z,41.00
2018-11-07T10:22:57.198Z,41.36
2018-11-07T10:25:26.429Z,41.61
2018-11-07T10:27:56.095Z,39.88
2018-11-07T10:30:24.546Z,38.75
2018-11-07T10:32:53.085Z,38.67
2018-11-07T10:35:22.015Z,39.61
2018-11-07T10:37:50.920Z,40.06
2018-11-07T10:40:22.221Z,38.63
2018-11-07T10:42:51.323Z,37.78
2018-11-07T10:45:20.431Z,36.16
2018-11-07T10:47:50.034Z,37.47
2018-11-07T10:50:19.687Z,36.74
2018-11-07T10:52:49.418Z,35.86
2018-11-07T10:55:18.900Z,35.46
2018-11-07T10:57:48.098Z,37.40
2018-11-07T11:00:22.262Z,36.22
2018-11-07T11:02:55.861Z,36.02
2018-11-07T11:05:24.850Z,35.93
2018-11-07T11:07:54.012Z,38.17
2018-11-07T11:10:23.315Z,36.64
2018-11-07T11:12:52.499Z,36.28
2018-11-07T11:15:24.428Z,35.48
2018-11-07T11:17:53.300Z,34.65
2018-11-07T11:20:22.224Z,35.11
2018-11-07T11:22:51.009Z,34.04
2018-11-07T11:25:20.143Z,34.51
2018-11-07T11:27:49.099Z,33.72
2018-11-07T11:30:17.710Z,33.53
2018-11-07T11:32:46.428Z,33.40
2018-11-07T11:35:15.393Z,33.51
2018-11-07T11:37:44.036Z,32.24
2018-11-07T11:40:14.064Z,31.77
2018-11-07T11:42:43.911Z,31.82
2018-11-07T11:45:13.823Z,32.42
2018-11-07T11:47:43.115Z,31.86
2018-11-07T11:50:14.227Z,31.96
2018-11-07T11:52:44.183Z,32.09
2018-11-07T11:55:13.198Z,33.18
2018-11-07T11:57:43.582Z,32.71
2018-11-07T12:00:14.842Z,32.72
2018-11-07T12:02:43.629Z,32.53
2018-11-07T12:05:13.324Z,32.84
2018-11-07T12:07:42.413Z,34.11
2018-11-07T12:10:19.261Z,33.12
2018-11-07T12:12:49.341Z,33.19
2018-11-07T12:15:19.162Z,33.14
2018-11-07T12:17:48.163Z,32.89
2018-11-07T12:20:16.959Z,33.34
2018-11-07T12:22:46.105Z,33.82
2018-11-07T12:25:15.604Z,32.87
2018-11-07T12:27:44.846Z,31.94
2018-11-07T12:30:16.439Z,32.04
2018-11-07T12:32:46.388Z,32.01
2018-11-07T12:35:15.662Z,31.75
2018-11-07T12:37:44.839Z,31.09
2018-11-07T12:40:14.118Z,31.63
2018-11-07T12:42:43.083Z,32.40
2018-11-07T12:45:13.306Z,32.01
2018-11-07T12:47:42.194Z,32.03
2018-11-07T12:50:17.636Z,31.43
2018-11-07T12:52:46.936Z,30.33
2018-11-07T12:55:15.966Z,29.59
2018-11-07T12:57:45.020Z,30.43
2018-11-07T13:00:16.130Z,31.54
2018-11-07T13:02:45.033Z,30.73
2018-11-07T13:05:15.071Z,30.18
2018-11-07T13:07:44.766Z,29.92
2018-11-07T13:10:14.801Z,29.39
2018-11-07T13:12:44.659Z,29.42
2018-11-07T13:15:14.213Z,29.06
2018-11-07T13:17:43.230Z,28.86
2018-11-07T13:20:14.329Z,28.99
2018-11-07T13:22:44.194Z,28.98
2018-11-07T13:25:13.771Z,28.09
2018-11-07T13:27:42.789Z,29.31
2018-11-07T13:30:15.710Z,29.91
2018-11-07T13:32:44.500Z,30.43
2018-11-07T13:35:14.175Z,29.83
2018-11-07T13:37:43.656Z,29.95
2018-11-07T13:40:19.678Z,30.03
2018-11-07T13:42:48.544Z,29.54
2018-11-07T13:45:18.654Z,29.96
2018-11-07T13:47:48.566Z,30.22
2018-11-07T13:50:17.805Z,30.26
2018-11-07T13:52:46.832Z,30.89
2018-11-07T13:55:16.151Z,30.42
2018-11-07T13:57:45.187Z,30.49
2018-11-07T14:00:19.230Z,29.82
2018-11-07T14:02:48.817Z,29.93
2018-11-07T14:05:17.630Z,31.71
2018-11-07T14:07:46.434Z,31.40
2018-11-07T14:10:24.026Z,31.83
2018-11-07T14:12:53.274Z,31.86
2018-11-07T14:15:22.179Z,32.31
2018-11-07T14:17:51.580Z,32.80
2018-11-07T14:20:20.795Z,32.00
2018-11-07T14:22:49.694Z,32.34
2018-11-07T14:25:18.481Z,32.66
2018-11-07T14:27:47.549Z,33.09
2018-11-07T14:30:17.870Z,34.36
2018-11-07T14:32:49.684Z,35.51
2018-11-07T14:35:18.998Z,36.04
2018-11-07T14:37:47.942Z,37.23
2018-11-07T14:40:16.934Z,37.40
2018-11-07T14:42:45.993Z,37.16
2018-11-07T14:45:15.080Z,37.08
2018-11-07T14:47:44.055Z,37.79
2018-11-07T14:50:13.278Z,37.69
2018-11-07T14:52:42.333Z,38.81
2018-11-07T14:55:12.350Z,39.30
2018-11-07T14:57:41.290Z,39.44
2018-11-07T15:00:12.270Z,40.67
2018-11-07T15:02:41.685Z,41.42
2018-11-07T15:05:11.763Z,41.86
2018-11-07T15:07:41.218Z,42.87
2018-11-07T15:10:11.427Z,43.12
2018-11-07T15:12:40.163Z,44.16
2018-11-07T15:15:11.698Z,44.06
2018-11-07T15:17:40.638Z,45.27
2018-11-07T15:20:10.674Z,45.79
2018-11-07T15:22:39.757Z,46.58
2018-11-07T15:25:09.994Z,46.77
2018-11-07T15:27:38.975Z,48.00
2018-11-07T15:30:09.402Z,48.62
2018-11-07T15:32:38.558Z,48.85
2018-11-07T15:35:08.046Z,49.05
2018-11-07T15:37:37.071Z,49.97
2018-11-07T15:40:07.443Z,50.73
2018-11-07T15:42:36.217Z,51.11
2018-11-07T15:45:05.909Z,51.46
2018-11-07T15:47:34.928Z,52.26
2018-11-07T15:50:08.978Z,52.93
2018-11-07T15:52:37.869Z,52.92
2018-11-07T15:55:07.413Z,53.56
2018-11-07T15:57:36.592Z,53.65
2018-11-07T16:00:08.229Z,54.10
2018-11-07T16:02:37.456Z,54.11
2018-11-07T16:05:06.901Z,54.98
2018-11-07T16:07:35.623Z,55.30
2018-11-07T16:10:04.938Z,55.29
2018-11-07T16:12:33.877Z,55.94
2018-11-07T16:15:02.786Z,55.65
2018-11-07T16:17:31.663Z,55.75
2018-11-07T16:20:00.795Z,56.64
2018-11-07T16:22:29.504Z,56.87
2018-11-07T16:24:58.821Z,56.60
2018-11-07T16:27:27.778Z,56.73
2018-11-07T16:29:56.686Z,57.97
2018-11-07T16:32:25.722Z,57.90
2018-11-07T16:34:54.302Z,58.43
2018-11-07T16:37:23.088Z,58.24
2018-11-07T16:39:51.847Z,58.72
2018-11-07T16:42:20.662Z,59.05
2018-11-07T16:44:49.433Z,59.44
2018-11-07T16:47:18.418Z,59.14
2018-11-07T16:49:47.511Z,59.20
2018-11-07T16:52:16.467Z,59.67
2018-11-07T16:54:45.346Z,60.23
2018-11-07T16:57:14.382Z,60.18
2018-11-07T16:59:43.486Z,60.43
2018-11-07T17:02:12.736Z,59.83
2018-11-07T17:04:41.701Z,59.91
2018-11-07T17:07:10.428Z,60.68
2018-11-07T17:09:39.307Z,59.55
2018-11-07T17:12:08.002Z,59.68
2018-11-07T17:14:36.825Z,60.30
2018-11-07T17:17:05.795Z,60.45
2018-11-07T17:19:35.140Z,60.86
2018-11-07T17:22:04.143Z,60.84
2018-11-07T17:24:33.358Z,60.76
2018-11-07T17:27:02.122Z,60.55
2018-11-07T17:29:31.159Z,60.30
2018-11-07T17:32:00.054Z,60.58
2018-11-07T17:34:28.902Z,60.59
2018-11-07T17:36:57.544Z,60.29
2018-11-07T17:39:26.377Z,60.62
2018-11-07T17:41:55.329Z,60.20
2018-11-07T17:44:24.051Z,60.07
2018-11-07T17:46:52.854Z,60.27
2018-11-07T17:49:21.866Z,60.43
2018-11-07T17:51:50.823Z,60.57
2018-11-07T17:54:20.055Z,60.51
2018-11-07T17:56:49.138Z,60.70
2018-11-07T17:59:18.182Z,60.12
2018-11-07T18:01:47.134Z,60.43
2018-11-07T18:04:15.803Z,59.88
2018-11-07T18:06:44.522Z,60.50
2018-11-07T18:09:13.263Z,60.21
2018-11-07T18:11:42.107Z,60.55
2018-11-07T18:14:11.384Z,60.25
2018-11-07T18:16:40.202Z,60.07
2018-11-07T18:19:09.543Z,59.92
2018-11-07T18:21:38.553Z,60.05
2018-11-07T18:24:07.489Z,60.24
2018-11-07T18:26:36.666Z,60.74
2018-11-07T18:29:06.574Z,60.32
2018-11-07T18:31:35.587Z,60.35
2018-11-07T18:34:04.356Z,60.31
2018-11-07T18:36:33.130Z,60.48
2018-11-07T18:39:02.367Z,59.93
2018-11-07T18:41:31.519Z,59.83
2018-11-07T18:44:00.357Z,60.43
2018-11-07T18:46:29.081Z,60.60
2018-11-07T18:48:57.846Z,59.95
2018-11-07T18:51:26.771Z,60.01
2018-11-07T18:53:55.634Z,60.78
2018-11-07T18:56:24.607Z,61.18
2018-11-07T18:58:53.960Z,60.89
2018-11-07T19:01:22.675Z,60.79
2018-11-07T19:03:51.406Z,61.09
2018-11-07T19:06:20.142Z,62.53
2018-11-07T19:08:48.966Z,62.67
2018-11-07T19:11:18.199Z,63.08
2018-11-07T19:13:47.470Z,63.31
2018-11-07T19:16:16.450Z,64.99
2018-11-07T19:18:45.199Z,64.58
2018-11-07T19:21:14.247Z,66.27
2018-11-07T19:23:42.943Z,66.66
2018-11-07T19:26:11.685Z,66.89
2018-11-07T19:28:40.559Z,68.50
2018-11-07T19:31:09.223Z,70.19
2018-11-07T19:33:37.895Z,69.39
2018-11-07T19:36:06.639Z,68.96
2018-11-07T19:38:35.550Z,68.54
2018-11-07T19:41:04.330Z,68.20
2018-11-07T19:43:33.379Z,67.29
2018-11-07T19:46:02.503Z,67.03
2018-11-07T19:48:31.434Z,66.80
2018-11-07T19:51:00.125Z,66.98
2018-11-07T19:53:29.114Z,67.55
2018-11-07T19:55:58.382Z,67.62
2018-11-07T19:58:27.302Z,67.98
2018-11-07T20:00:55.955Z,70.54
2018-11-07T20:03:24.583Z,70.77
2018-11-07T20:05:53.342Z,70.66
2018-11-07T20:08:22.325Z,70.09
2018-11-07T20:10:51.102Z,71.89
2018-11-07T20:13:20.034Z,72.49
2018-11-07T20:15:49.102Z,72.50
2018-11-07T20:18:17.962Z,73.36
2018-11-07T20:20:46.670Z,74.25
2018-11-07T20:23:15.688Z,74.19
2018-11-07T20:25:44.372Z,75.00
2018-11-07T20:28:13.285Z,75.17
2018-11-07T20:30:42.283Z,74.46
2018-11-07T20:33:10.960Z,75.35
2018-11-07T20:35:39.732Z,75.83
2018-11-07T20:38:08.610Z,76.22
2018-11-07T20:40:37.433Z,76.62
2018-11-07T20:43:06.676Z,77.46
2018-11-07T20:45:35.835Z,77.04
2018-11-07T20:48:04.840Z,77.38
2018-11-07T20:50:34.219Z,77.39
2018-11-07T20:53:03.340Z,76.80
2018-11-07T20:55:32.497Z,77.27
2018-11-07T20:58:01.563Z,77.25
2018-11-07T21:00:30.266Z,77.50
2018-11-07T21:02:59.040Z,77.09
2018-11-07T21:05:27.912Z,77.13
2018-11-07T21:07:56.990Z,77.80
2018-11-07T21:10:26.172Z,78.00
2018-11-07T21:12:54.981Z,77.70
2018-11-07T21:15:23.675Z,77.48
2018-11-07T21:17:52.690Z,77.61
2018-11-07T21:20:21.599Z,77.51
2018-11-07T21:22:50.211Z,77.53
2018-11-07T21:25:19.268Z,78.48
2018-11-07T21:27:48.382Z,78.31
2018-11-07T21:30:17.618Z,78.39
2018-11-07T21:32:46.207Z,78.13
2018-11-07T21:35:14.979Z,77.66
2018-11-07T21:37:43.947Z,76.81
2018-11-07T21:40:14.746Z,75.91
2018-11-07T21:42:44.037Z,76.83
2018-11-07T21:45:14.008Z,77.11
2018-11-07T21:47:43.621Z,76.72
2018-11-07T21:50:13.856Z,77.28
2018-11-07T21:52:42.550Z,77.38
2018-11-07T21:55:11.532Z,77.81
2018-11-07T21:57:40.659Z,77.45
2018-11-07T22:00:12.358Z,77.70
2018-11-07T22:02:41.785Z,76.73
2018-11-07T22:05:10.953Z,77.49
2018-11-07T22:07:40.254Z,78.04
2018-11-07T22:10:10.563Z,76.73
2018-11-07T22:12:39.602Z,77.01
2018-11-07T22:15:08.942Z,77.77
2018-11-07T22:17:38.343Z,77.38
2018-11-07T22:20:19.633Z,77.32
2018-11-07T22:22:48.460Z,78.28
2018-11-07T22:25:17.715Z,77.42
2018-11-07T22:27:46.606Z,77.12
2018-11-07T22:30:16.580Z,77.36
2018-11-07T22:32:45.314Z,76.78
2018-11-07T22:35:15.466Z,76.44
2018-11-07T22:37:45.041Z,77.84
2018-11-07T22:40:16.999Z,77.75
2018-11-07T22:42:45.721Z,77.58
2018-11-07T22:45:14.894Z,77.00
2018-11-07T22:47:43.846Z,77.17
2018-11-07T22:50:13.848Z,77.39
2018-11-07T22:52:43.714Z,77.70
2018-11-07T22:55:12.669Z,78.21
2018-11-07T22:57:41.502Z,77.47
2018-11-07T23:00:20.640Z,77.13
2018-11-07T23:02:50.761Z,76.36
2018-11-07T23:05:19.447Z,76.21
2018-11-07T23:07:49.031Z,76.22
2018-11-07T23:10:18.183Z,75.97
2018-11-07T23:12:47.603Z,76.42
2018-11-07T23:15:21.620Z,76.89
2018-11-07T23:17:50.874Z,76.36
2018-11-07T23:20:20.032Z,75.62
2018-11-07T23:22:49.141Z,76.01
2018-11-07T23:25:18.425Z,75.44
2018-11-07T23:27:47.829Z,75.50
2018-11-07T23:30:16.698Z,75.15
2018-11-07T23:32:45.575Z,74.97
2018-11-07T23:35:14.748Z,75.18
2018-11-07T23:37:43.985Z,75.38
2018-11-07T23:40:13.302Z,75.83
2018-11-07T23:42:42.540Z,76.37
2018-11-07T23:45:11.810Z,76.41
2018-11-07T23:47:41.149Z,76.93
2018-11-07T23:50:10.479Z,77.46
2018-11-07T23:52:44.506Z,77.47
2018-11-07T23:55:13.694Z,77.06
2018-11-07T23:57:42.935Z,77.41
